createdAt,value
2016-05-17T00:00:33.000Z,42.73
2016-05-17T00:01:33.018Z,42.64
2016-05-17T00:02:33.037Z,42.93
2016-05-17T00:03:33.070Z,43.02
2016-05-17T00:04:32.933Z,43.02
2016-05-17T00:05:33.107Z,42.9
2016-05-17T00:06:33.297Z,43.12
2016-05-17T00:07:33.003Z,43.12
2016-05-17T00:08:33.021Z,43.12
2016-05-17T00:09:33.196Z,42.83
2016-05-17T00:10:33.214Z,43.09
2016-05-17T00:11:33.249Z,42.71
2016-05-17T00:12:33.111Z,43.09
2016-05-17T00:13:33.285Z,42.81
2016-05-17T00:14:33.303Z,42.9
2016-05-17T00:15:33.337Z,43
2016-05-17T00:16:33.355Z,42.81
2016-05-17T00:17:33.374Z,43
2016-05-17T00:18:33.407Z,43.19
2016-05-17T00:19:33.411Z,43.19
2016-05-17T00:20:33.444Z,43.19
2016-05-17T00:21:33.572Z,43.29
2016-05-17T00:22:33.497Z,43.29
2016-05-17T00:23:33.499Z,43.48
2016-05-17T00:24:33.534Z,43.48
2016-05-17T00:25:33.551Z,42.61
2016-05-17T00:26:33.585Z,43.29
2016-05-17T00:27:33.588Z,43.48
2016-05-17T00:28:33.607Z,42.9
2016-05-17T00:29:33.468Z,43.09
2016-05-17T00:30:33.659Z,43
2016-05-17T00:31:33.692Z,43
2016-05-17T00:32:33.696Z,42.81
2016-05-17T00:33:33.714Z,43
2016-05-17T00:34:33.575Z,42.9
2016-05-17T00:35:33.766Z,43
2016-05-17T00:36:33.784Z,43.09
2016-05-17T00:37:33.803Z,43.19
2016-05-17T00:38:33.822Z,43.19
2016-05-17T00:39:33.839Z,43
2016-05-17T00:40:33.873Z,43.09
2016-05-17T00:41:33.891Z,43.19
2016-05-17T00:42:33.910Z,43.09
2016-05-17T00:43:33.928Z,43.29
2016-05-17T00:44:34.166Z,43.09
2016-05-17T00:45:33.981Z,43.29
2016-05-17T00:46:33.999Z,43.19
2016-05-17T00:47:34.017Z,43.38
2016-05-17T00:48:34.036Z,43.29
2016-05-17T00:49:34.069Z,43.57
2016-05-17T00:50:34.087Z,43.09
2016-05-17T00:51:34.106Z,43.48
2016-05-17T00:52:34.124Z,43.19
2016-05-17T00:53:34.143Z,43.57
2016-05-17T00:54:34.020Z,43.48
2016-05-17T00:55:34.195Z,43.66
2016-05-17T00:56:34.057Z,43.76
2016-05-17T00:57:34.231Z,43.48
2016-05-17T00:58:34.265Z,43.38
2016-05-17T00:59:34.284Z,43.38
2016-05-17T01:00:34.302Z,43.38
2016-05-17T01:01:34.321Z,43.38
2016-05-17T01:02:34.182Z,43.95
2016-05-17T01:03:34.357Z,44.05
2016-05-17T01:04:34.234Z,43.48
2016-05-17T01:05:34.409Z,43.66
2016-05-17T01:06:34.442Z,43.38
2016-05-17T01:07:34.446Z,43.29
2016-05-17T01:08:34.464Z,43.48
2016-05-17T01:09:34.483Z,43.95
2016-05-17T01:10:34.517Z,43.57
2016-05-17T01:11:34.394Z,43.66
2016-05-17T01:12:34.553Z,43.29
2016-05-17T01:13:34.572Z,43.48
2016-05-17T01:14:34.605Z,43.48
2016-05-17T01:15:34.624Z,43.57
2016-05-17T01:16:34.642Z,43.57
2016-05-17T01:17:34.661Z,43.55
2016-05-17T01:18:34.679Z,43.84
2016-05-17T01:19:34.541Z,43.65
2016-05-17T01:20:34.731Z,43.84
2016-05-17T01:21:34.593Z,43.74
2016-05-17T01:22:34.768Z,43.84
2016-05-17T01:23:34.785Z,43.74
2016-05-17T01:24:34.851Z,43.74
2016-05-17T01:25:34.838Z,43.74
2016-05-17T01:26:34.857Z,43.74
2016-05-17T01:27:34.874Z,43.84
2016-05-17T01:28:34.893Z,43.84
2016-05-17T01:29:34.911Z,43.65
2016-05-17T01:30:34.945Z,43.65
2016-05-17T01:31:34.964Z,43.74
2016-05-17T01:32:34.981Z,43.74
2016-05-17T01:33:35.016Z,44.02
2016-05-17T01:34:35.034Z,44.02
2016-05-17T01:35:35.053Z,44.12
2016-05-17T01:36:35.087Z,44.22
2016-05-17T01:37:35.089Z,44.22
2016-05-17T01:38:35.108Z,44.02
2016-05-17T01:39:35.125Z,43.93
2016-05-17T01:40:35.159Z,44.22
2016-05-17T01:41:35.194Z,44.12
2016-05-17T01:42:35.040Z,44.31
2016-05-17T01:43:35.214Z,44.22
2016-05-17T01:44:35.233Z,44.22
2016-05-17T01:45:35.266Z,44.22
2016-05-17T01:46:35.269Z,44.12
2016-05-17T01:47:35.303Z,44.41
2016-05-17T01:48:35.321Z,44.31
2016-05-17T01:49:35.341Z,44.41
2016-05-17T01:50:35.374Z,44.41
2016-05-17T01:51:35.393Z,44.31
2016-05-17T01:52:35.411Z,44.6
2016-05-17T01:53:35.491Z,44.51
2016-05-17T01:54:35.447Z,44.31
2016-05-17T01:55:35.481Z,44.22
2016-05-17T01:56:35.499Z,44.31
2016-05-17T01:57:35.518Z,44.41
2016-05-17T01:58:35.537Z,44.31
2016-05-17T01:59:35.554Z,44.41
2016-05-17T02:00:35.588Z,44.31
2016-05-17T02:01:35.607Z,44.31
2016-05-17T02:02:35.468Z,44.41
2016-05-17T02:03:35.643Z,44.6
2016-05-17T02:04:35.661Z,44.6
2016-05-17T02:05:35.540Z,44.7
2016-05-17T02:06:35.729Z,44.79
2016-05-17T02:07:35.732Z,44.79
2016-05-17T02:08:35.751Z,44.7
2016-05-17T02:09:35.769Z,44.6
2016-05-17T02:10:35.787Z,44.79
2016-05-17T02:11:35.806Z,44.79
2016-05-17T02:12:35.839Z,44.89
2016-05-17T02:13:35.858Z,44.6
2016-05-17T02:14:35.876Z,44.79
2016-05-17T02:15:35.894Z,44.89
2016-05-17T02:16:35.913Z,44.87
2016-05-17T02:17:35.947Z,45.08
2016-05-17T02:18:35.949Z,45.08
2016-05-17T02:19:35.828Z,45.08
2016-05-17T02:20:36.001Z,44.98
2016-05-17T02:21:36.035Z,44.98
2016-05-17T02:22:36.038Z,45.06
2016-05-17T02:23:36.104Z,44.87
2016-05-17T02:24:36.091Z,45.06
2016-05-17T02:25:36.109Z,45.08
2016-05-17T02:26:36.127Z,44.96
2016-05-17T02:27:36.240Z,45.15
2016-05-17T02:28:36.163Z,45.15
2016-05-17T02:29:36.198Z,45.25
2016-05-17T02:30:36.216Z,45.15
2016-05-17T02:31:36.251Z,45.15
2016-05-17T02:32:36.253Z,45.25
2016-05-17T02:33:36.287Z,45.34
2016-05-17T02:34:36.226Z,45.25
2016-05-17T02:35:36.167Z,45.34
2016-05-17T02:36:36.341Z,45.34
2016-05-17T02:37:36.360Z,45.25
2016-05-17T02:38:36.362Z,45.34
2016-05-17T02:39:36.459Z,45.43
2016-05-17T02:40:36.275Z,45.34
2016-05-17T02:41:36.292Z,45.43
2016-05-17T02:42:36.451Z,45.43
2016-05-17T02:43:36.485Z,45.63
2016-05-17T02:44:36.503Z,45.53
2016-05-17T02:45:36.522Z,45.53
2016-05-17T02:46:36.541Z,45.43
2016-05-17T02:47:36.575Z,45.63
2016-05-17T02:48:36.592Z,45.53
2016-05-17T02:49:36.610Z,45.53
2016-05-17T02:50:36.488Z,45.82
2016-05-17T02:51:36.976Z,45.63
2016-05-17T02:52:36.682Z,45.72
2016-05-17T02:53:36.544Z,45.72
2016-05-17T02:54:36.718Z,45.53
2016-05-17T02:55:36.736Z,45.63
2016-05-17T02:56:36.786Z,45.63
2016-05-17T02:57:36.773Z,45.72
2016-05-17T02:58:36.807Z,45.82
2016-05-17T02:59:36.826Z,45.82
2016-05-17T03:00:36.844Z,45.63
2016-05-17T03:01:36.862Z,45.82
2016-05-17T03:02:36.880Z,45.82
2016-05-17T03:03:36.898Z,45.63
2016-05-17T03:04:36.932Z,45.92
2016-05-17T03:05:36.951Z,46.11
2016-05-17T03:06:36.969Z,45.92
2016-05-17T03:07:36.987Z,46.01
2016-05-17T03:08:36.850Z,45.92
2016-05-17T03:09:37.023Z,45.82
2016-05-17T03:10:37.042Z,46.01
2016-05-17T03:11:37.061Z,46.11
2016-05-17T03:12:37.095Z,46.11
2016-05-17T03:13:37.113Z,46.2
2016-05-17T03:14:37.131Z,46.11
2016-05-17T03:15:37.149Z,46.01
2016-05-17T03:16:37.028Z,46.01
2016-05-17T03:17:37.186Z,45.72
2016-05-17T03:18:37.220Z,45.92
2016-05-17T03:19:37.239Z,46.2
2016-05-17T03:20:37.100Z,46.01
2016-05-17T03:21:37.384Z,46.11
2016-05-17T03:22:37.293Z,46.01
2016-05-17T03:23:37.327Z,46.2
2016-05-17T03:24:37.424Z,46.01
2016-05-17T03:25:37.363Z,46.2
2016-05-17T03:26:37.382Z,46.3
2016-05-17T03:27:37.401Z,46.48
2016-05-17T03:28:37.419Z,46.11
2016-05-17T03:29:37.593Z,46.2
2016-05-17T03:30:37.455Z,46.39
2016-05-17T03:31:37.489Z,46.2
2016-05-17T03:32:37.571Z,46.2
2016-05-17T03:33:37.371Z,46.3
2016-05-17T03:34:37.545Z,46.2
2016-05-17T03:35:37.579Z,46.2
2016-05-17T03:36:37.456Z,46.3
2016-05-17T03:37:37.615Z,46.3
2016-05-17T03:38:37.633Z,46.3
2016-05-17T03:39:37.496Z,46.2
2016-05-17T03:40:37.686Z,46.11
2016-05-17T03:41:37.689Z,46.2
2016-05-17T03:42:37.706Z,46.11
2016-05-17T03:43:37.740Z,46.2
2016-05-17T03:44:37.759Z,46.11
2016-05-17T03:45:37.777Z,46.2
2016-05-17T03:46:37.795Z,46.11
2016-05-17T03:47:37.829Z,46.48
2016-05-17T03:48:37.848Z,46.2
2016-05-17T03:49:37.850Z,46.11
2016-05-17T03:50:37.883Z,46.2
2016-05-17T03:51:37.903Z,46.11
2016-05-17T03:52:37.921Z,46.11
2016-05-17T03:53:37.939Z,46.48
2016-05-17T03:54:37.957Z,46.39
2016-05-17T03:55:37.991Z,46.3
2016-05-17T03:56:38.010Z,46.3
2016-05-17T03:57:38.028Z,46.39
2016-05-17T03:58:38.046Z,46.3
2016-05-17T03:59:38.065Z,46.68
2016-05-17T04:00:38.083Z,46.3
2016-05-17T04:01:38.101Z,46.68
2016-05-17T04:02:38.135Z,46.68
2016-05-17T04:03:38.153Z,46.68
2016-05-17T04:04:38.172Z,46.58
2016-05-17T04:05:38.207Z,46.77
2016-05-17T04:06:38.209Z,46.39
2016-05-17T04:07:38.227Z,46.58
2016-05-17T04:08:38.261Z,46.58
2016-05-17T04:09:38.279Z,46.48
2016-05-17T04:10:38.297Z,46.3
2016-05-17T04:11:38.315Z,46.58
2016-05-17T04:12:38.178Z,46.58
2016-05-17T04:13:38.353Z,46.48
2016-05-17T04:14:38.370Z,46.68
2016-05-17T04:15:38.405Z,46.58
2016-05-17T04:16:38.423Z,46.39
2016-05-17T04:17:38.441Z,46.39
2016-05-17T04:18:38.459Z,46.39
2016-05-17T04:19:38.477Z,46.39
2016-05-17T04:20:38.512Z,46.48
2016-05-17T04:21:38.531Z,46.39
2016-05-17T04:22:38.564Z,46.68
2016-05-17T04:23:38.583Z,46.77
2016-05-17T04:24:38.585Z,46.77
2016-05-17T04:25:38.603Z,46.58
2016-05-17T04:26:38.621Z,46.48
2016-05-17T04:27:38.640Z,46.39
2016-05-17T04:28:38.658Z,46.48
2016-05-17T04:29:38.693Z,46.87
2016-05-17T04:30:38.710Z,46.3
2016-05-17T04:31:38.729Z,46.58
2016-05-17T04:32:38.747Z,46.68
2016-05-17T04:33:38.765Z,46.58
2016-05-17T04:34:38.784Z,46.48
2016-05-17T04:35:38.801Z,46.68
2016-05-17T04:36:39.071Z,46.58
2016-05-17T04:37:38.855Z,46.39
2016-05-17T04:38:38.873Z,46.39
2016-05-17T04:39:38.891Z,46.58
2016-05-17T04:40:38.925Z,46.39
2016-05-17T04:41:38.928Z,46.58
2016-05-17T04:42:38.945Z,46.58
2016-05-17T04:43:38.980Z,46.48
2016-05-17T04:44:38.998Z,46.48
2016-05-17T04:45:39.017Z,46.48
2016-05-17T04:46:39.035Z,46.68
2016-05-17T04:47:39.053Z,46.58
2016-05-17T04:48:39.072Z,46.58
2016-05-17T04:49:39.105Z,46.48
2016-05-17T04:50:39.124Z,46.58
2016-05-17T04:51:39.657Z,46.58
2016-05-17T04:52:39.161Z,46.58
2016-05-17T04:53:39.023Z,46.97
2016-05-17T04:54:39.041Z,46.42
2016-05-17T04:55:39.216Z,46.42
2016-05-17T04:56:39.249Z,46.99
2016-05-17T04:57:39.268Z,46.99
2016-05-17T04:58:39.380Z,46.89
2016-05-17T04:59:39.304Z,46.97
2016-05-17T05:00:39.338Z,46.58
2016-05-17T05:01:39.341Z,46.99
2016-05-17T05:02:39.375Z,46.7
2016-05-17T05:03:39.237Z,46.99
2016-05-17T05:04:39.412Z,46.99
2016-05-17T05:05:39.429Z,46.89
2016-05-17T05:06:40.042Z,46.8
2016-05-17T05:07:39.325Z,46.87
2016-05-17T05:08:39.500Z,46.68
2016-05-17T05:09:39.540Z,47.18
2016-05-17T05:10:39.601Z,46.77
2016-05-17T05:11:39.663Z,47.37
2016-05-17T05:12:39.723Z,46.8
2016-05-17T05:13:39.785Z,46.7
2016-05-17T05:14:39.848Z,46.99
2016-05-17T05:15:39.882Z,46.99
2016-05-17T05:16:39.916Z,47.27
2016-05-17T05:17:39.965Z,47.08
2016-05-17T05:18:39.984Z,46.89
2016-05-17T05:19:40.028Z,47.47
2016-05-17T05:20:39.895Z,47.47
2016-05-17T05:21:40.216Z,47.18
2016-05-17T05:22:39.942Z,47.47
2016-05-17T05:23:39.965Z,47.47
2016-05-17T05:24:40.160Z,47.56
2016-05-17T05:25:40.180Z,48.04
2016-05-17T05:26:40.185Z,48.04
2016-05-17T05:27:40.205Z,48.33
2016-05-17T05:28:40.241Z,48.13
2016-05-17T05:29:40.276Z,48.04
2016-05-17T05:30:40.123Z,48.04
2016-05-17T05:31:40.314Z,47.94
2016-05-17T05:32:40.333Z,48.13
2016-05-17T05:33:40.353Z,48.23
2016-05-17T05:34:40.370Z,47.75
2016-05-17T05:35:40.234Z,47.85
2016-05-17T05:36:40.409Z,48.13
2016-05-17T05:37:40.427Z,47.56
2016-05-17T05:38:40.462Z,47.66
2016-05-17T05:39:40.480Z,47.47
2016-05-17T05:40:40.498Z,47.56
2016-05-17T05:41:40.360Z,46.89
2016-05-17T05:42:40.535Z,47.18
2016-05-17T05:43:40.554Z,47.37
2016-05-17T05:44:40.587Z,47.37
2016-05-17T05:45:40.590Z,46.89
2016-05-17T05:46:40.624Z,46.89
2016-05-17T05:47:40.642Z,47.18
2016-05-17T05:48:40.661Z,46.89
2016-05-17T05:49:40.694Z,46.8
2016-05-17T05:50:40.728Z,46.99
2016-05-17T05:51:40.731Z,46.63
2016-05-17T05:52:40.593Z,46.53
2016-05-17T05:53:40.768Z,46.51
2016-05-17T05:54:40.787Z,46.63
2016-05-17T05:55:40.820Z,46.06
2016-05-17T05:56:40.823Z,46.34
2016-05-17T05:57:40.857Z,46.15
2016-05-17T05:58:40.719Z,46.25
2016-05-17T05:59:40.737Z,46.34
2016-05-17T06:00:40.912Z,45.77
2016-05-17T06:01:40.945Z,45.87
2016-05-17T06:02:40.948Z,45.87
2016-05-17T06:03:40.983Z,45.87
2016-05-17T06:04:40.844Z,45.67
2016-05-17T06:05:41.019Z,45.58
2016-05-17T06:06:41.052Z,45.96
2016-05-17T06:07:41.055Z,45.87
2016-05-17T06:08:41.074Z,45.67
2016-05-17T06:09:41.108Z,45.67
2016-05-17T06:10:41.126Z,45.48
2016-05-17T06:11:41.144Z,45.67
2016-05-17T06:12:41.162Z,45.67
2016-05-17T06:13:41.181Z,45.48
2016-05-17T06:14:41.215Z,45.48
2016-05-17T06:15:41.233Z,45.29
2016-05-17T06:16:41.251Z,45.48
2016-05-17T06:17:41.270Z,45.39
2016-05-17T06:18:41.288Z,45.39
2016-05-17T06:19:41.306Z,45.29
2016-05-17T06:20:41.326Z,45.39
2016-05-17T06:21:41.578Z,45.1
2016-05-17T06:22:41.376Z,45.1
2016-05-17T06:23:41.395Z,45.2
2016-05-17T06:24:41.429Z,45.2
2016-05-17T06:25:41.292Z,45.2
2016-05-17T06:26:41.467Z,45.01
2016-05-17T06:27:41.485Z,45.01
2016-05-17T06:28:41.517Z,44.91
2016-05-17T06:29:41.537Z,44.81
2016-05-17T06:30:41.383Z,44.91
2016-05-17T06:31:41.573Z,44.81
2016-05-17T06:32:41.592Z,44.81
2016-05-17T06:33:41.611Z,44.53
2016-05-17T06:34:41.644Z,44.72
2016-05-17T06:35:41.491Z,44.72
2016-05-17T06:36:41.681Z,44.72
2016-05-17T06:37:41.699Z,44.43
2016-05-17T06:38:41.780Z,44.62
2016-05-17T06:39:41.735Z,44.53
2016-05-17T06:40:41.754Z,44.53
2016-05-17T06:41:41.772Z,44.53
2016-05-17T06:42:41.791Z,44.53
2016-05-17T06:43:41.824Z,44.34
2016-05-17T06:44:41.843Z,44.26
2016-05-17T06:45:41.861Z,44.36
2016-05-17T06:46:41.879Z,44.24
2016-05-17T06:47:41.913Z,44.45
2016-05-17T06:48:41.775Z,44.17
2016-05-17T06:49:41.949Z,44.07
2016-05-17T06:50:41.968Z,44.17
2016-05-17T06:51:42.534Z,44.07
2016-05-17T06:52:42.020Z,44.07
2016-05-17T06:53:41.882Z,43.69
2016-05-17T06:54:42.057Z,43.88
2016-05-17T06:55:42.075Z,43.98
2016-05-17T06:56:42.093Z,43.5
2016-05-17T06:57:42.127Z,43.5
2016-05-17T06:58:42.146Z,44.07
2016-05-17T06:59:42.164Z,43.98
2016-05-17T07:00:42.183Z,43.79
2016-05-17T07:01:42.200Z,43.5
2016-05-17T07:02:42.234Z,43.21
2016-05-17T07:03:42.253Z,43.69
2016-05-17T07:04:42.271Z,43.79
2016-05-17T07:05:42.289Z,43.69
2016-05-17T07:06:42.324Z,43.69
2016-05-17T07:07:42.342Z,43.21
2016-05-17T07:08:42.360Z,43.59
2016-05-17T07:09:42.394Z,43.79
2016-05-17T07:10:42.412Z,43.69
2016-05-17T07:11:42.430Z,43.3
2016-05-17T07:12:42.449Z,43.5
2016-05-17T07:13:42.468Z,43.4
2016-05-17T07:14:42.485Z,43.69
2016-05-17T07:15:42.519Z,43.59
2016-05-17T07:16:42.522Z,43.59
2016-05-17T07:17:42.557Z,42.93
2016-05-17T07:18:42.574Z,43.21
2016-05-17T07:19:42.593Z,43.3
2016-05-17T07:20:42.454Z,43.3
2016-05-17T07:21:43.114Z,43.02
2016-05-17T07:22:42.663Z,43.12
2016-05-17T07:23:42.775Z,43.3
2016-05-17T07:24:42.701Z,43.4
2016-05-17T07:25:42.718Z,43.4
2016-05-17T07:26:42.768Z,43.3
2016-05-17T07:27:42.771Z,43.59
2016-05-17T07:28:42.789Z,43.4
2016-05-17T07:29:42.823Z,43.5
2016-05-17T07:30:42.825Z,43.5
2016-05-17T07:31:42.859Z,43.5
2016-05-17T07:32:42.722Z,43.4
2016-05-17T07:33:42.897Z,43.5
2016-05-17T07:34:42.930Z,43.5
2016-05-17T07:35:42.948Z,43.4
2016-05-17T07:36:43.217Z,43.23
2016-05-17T07:37:42.985Z,43.43
2016-05-17T07:38:43.003Z,43.14
2016-05-17T07:39:43.022Z,43.14
2016-05-17T07:40:43.055Z,43.33
2016-05-17T07:41:43.074Z,42.94
2016-05-17T07:42:43.108Z,43.33
2016-05-17T07:43:43.141Z,43.23
2016-05-17T07:44:43.129Z,42.85
2016-05-17T07:45:43.162Z,42.66
2016-05-17T07:46:43.182Z,42.56
2016-05-17T07:47:43.200Z,42.47
2016-05-17T07:48:43.218Z,41.99
2016-05-17T07:49:43.252Z,42.66
2016-05-17T07:50:43.270Z,42.27
2016-05-17T07:51:43.288Z,42.27
2016-05-17T07:52:43.323Z,42.27
2016-05-17T07:53:43.325Z,42.18
2016-05-17T07:54:43.203Z,42.27
2016-05-17T07:55:43.220Z,42.2
2016-05-17T07:56:43.255Z,41.72
2016-05-17T07:57:43.429Z,41.91
2016-05-17T07:58:43.542Z,41.91
2016-05-17T07:59:43.467Z,41.82
2016-05-17T08:00:43.500Z,41.82
2016-05-17T08:01:43.503Z,41.82
2016-05-17T08:02:43.381Z,41.72
2016-05-17T08:03:43.555Z,41.72
2016-05-17T08:04:43.573Z,41.44
2016-05-17T08:05:43.700Z,41.44
2016-05-17T08:06:44.407Z,41.44
2016-05-17T08:07:43.706Z,40.77
2016-05-17T08:08:44.005Z,40.86
2016-05-17T08:09:43.728Z,40.95
2016-05-17T08:10:43.714Z,40.86
2016-05-17T08:11:43.733Z,40.77
2016-05-17T08:12:43.752Z,40.86
2016-05-17T08:13:43.769Z,40.78
2016-05-17T08:14:43.803Z,40.21
2016-05-17T08:15:43.868Z,40.21
2016-05-17T08:16:43.871Z,40.31
2016-05-17T08:17:43.874Z,40.19
2016-05-17T08:18:43.720Z,40.21
2016-05-17T08:19:43.910Z,40.5
2016-05-17T08:20:43.929Z,39.92
2016-05-17T08:21:44.103Z,39.83
2016-05-17T08:22:43.982Z,39.83
2016-05-17T08:23:43.999Z,40.02
2016-05-17T08:24:44.034Z,40.02
2016-05-17T08:25:44.067Z,39.92
2016-05-17T08:26:44.070Z,39.92
2016-05-17T08:27:44.088Z,39.92
2016-05-17T08:28:44.200Z,39.73
2016-05-17T08:29:44.140Z,39.83
2016-05-17T08:30:44.159Z,39.83
2016-05-17T08:31:44.178Z,39.83
2016-05-17T08:32:44.195Z,39.73
2016-05-17T08:33:44.229Z,39.92
2016-05-17T08:34:44.248Z,39.92
2016-05-17T08:35:44.267Z,39.64
2016-05-17T08:36:44.331Z,39.73
2016-05-17T08:37:44.303Z,39.54
2016-05-17T08:38:44.337Z,39.64
2016-05-17T08:39:44.355Z,39.54
2016-05-17T08:40:44.233Z,39.64
2016-05-17T08:41:44.408Z,39.54
2016-05-17T08:42:44.269Z,39.45
2016-05-17T08:43:44.444Z,39.73
2016-05-17T08:44:44.477Z,39.92
2016-05-17T08:45:44.496Z,40.21
2016-05-17T08:46:44.514Z,40.21
2016-05-17T08:47:44.642Z,40.29
2016-05-17T08:48:44.613Z,40.59
2016-05-17T08:49:44.694Z,40.88
2016-05-17T08:50:44.446Z,40.98
2016-05-17T08:51:44.481Z,41.05
2016-05-17T08:52:44.640Z,40.86
2016-05-17T08:53:44.674Z,41.05
2016-05-17T08:54:44.536Z,41.72
2016-05-17T08:55:44.710Z,41.82
2016-05-17T08:56:44.729Z,42.01
2016-05-17T08:57:44.763Z,42.11
2016-05-17T08:58:44.781Z,42.3
2016-05-17T08:59:44.643Z,42.97
2016-05-17T09:00:44.834Z,42.68
2016-05-17T09:01:44.851Z,43.16
2016-05-17T09:02:44.886Z,43.06
2016-05-17T09:03:44.888Z,43.06
2016-05-17T09:04:44.922Z,43.44
2016-05-17T09:05:44.940Z,43.73
2016-05-17T09:06:44.974Z,43.73
2016-05-17T09:07:44.977Z,43.63
2016-05-17T09:08:44.995Z,43.73
2016-05-17T09:09:44.873Z,44.12
2016-05-17T09:10:45.048Z,44.21
2016-05-17T09:11:45.081Z,44.31
2016-05-17T09:12:45.100Z,44.4
2016-05-17T09:13:44.961Z,44.31
2016-05-17T09:14:44.981Z,44.69
2016-05-17T09:15:44.999Z,44.79
2016-05-17T09:16:45.189Z,44.69
2016-05-17T09:17:45.207Z,44.88
2016-05-17T09:18:45.225Z,45.09
2016-05-17T09:19:45.259Z,45
2016-05-17T09:20:45.262Z,45.29
2016-05-17T09:21:45.437Z,45.19
2016-05-17T09:22:45.158Z,45.19
2016-05-17T09:23:45.349Z,45.29
2016-05-17T09:24:45.366Z,45.29
2016-05-17T09:25:45.385Z,45
2016-05-17T09:26:45.404Z,45.29
2016-05-17T09:27:45.437Z,45
2016-05-17T09:28:45.299Z,45
2016-05-17T09:29:45.490Z,45
2016-05-17T09:30:45.336Z,45
2016-05-17T09:31:45.526Z,44.9
2016-05-17T09:32:45.560Z,45
2016-05-17T09:33:45.579Z,45.09
2016-05-17T09:34:45.581Z,45
2016-05-17T09:35:45.615Z,44.81
2016-05-17T09:36:45.978Z,44.71
2016-05-17T09:37:45.776Z,44.71
2016-05-17T09:38:45.686Z,44.83
2016-05-17T09:39:45.704Z,44.83
2016-05-17T09:40:45.722Z,44.73
2016-05-17T09:41:45.741Z,44.64
2016-05-17T09:42:45.790Z,44.45
2016-05-17T09:43:45.636Z,44.45
2016-05-17T09:44:45.811Z,44.45
2016-05-17T09:45:45.844Z,44.54
2016-05-17T09:46:45.863Z,44.54
2016-05-17T09:47:45.897Z,44.54
2016-05-17T09:48:45.915Z,44.54
2016-05-17T09:49:45.933Z,44.45
2016-05-17T09:50:45.952Z,44.35
2016-05-17T09:51:46.252Z,44.45
2016-05-17T09:52:46.005Z,44.45
2016-05-17T09:53:46.024Z,44.26
2016-05-17T09:54:46.040Z,44.26
2016-05-17T09:55:46.075Z,44.26
2016-05-17T09:56:45.938Z,44.26
2016-05-17T09:57:46.112Z,44.26
2016-05-17T09:58:46.146Z,44.45
2016-05-17T09:59:46.164Z,44.13
2016-05-17T10:00:46.026Z,44.23
2016-05-17T10:01:46.201Z,44.33
2016-05-17T10:02:46.234Z,44.43
2016-05-17T10:03:46.253Z,44.52
2016-05-17T10:04:46.271Z,44.71
2016-05-17T10:05:46.305Z,44.71
2016-05-17T10:06:46.339Z,44.52
2016-05-17T10:07:46.342Z,44.71
2016-05-17T10:08:46.376Z,44.71
2016-05-17T10:09:46.394Z,44.62
2016-05-17T10:10:46.412Z,44.43
2016-05-17T10:11:46.289Z,44.43
2016-05-17T10:12:46.309Z,44.33
2016-05-17T10:13:46.498Z,44.23
2016-05-17T10:14:46.517Z,44.13
2016-05-17T10:15:46.520Z,43.56
2016-05-17T10:16:46.553Z,43.95
2016-05-17T10:17:46.588Z,43.85
2016-05-17T10:18:46.591Z,43.76
2016-05-17T10:19:46.624Z,43.76
2016-05-17T10:20:46.642Z,43.66
2016-05-17T10:21:46.677Z,43.56
2016-05-17T10:22:46.694Z,43.63
2016-05-17T10:23:46.713Z,43.63
2016-05-17T10:24:46.731Z,43.56
2016-05-17T10:25:46.750Z,43.37
2016-05-17T10:26:46.783Z,43.47
2016-05-17T10:27:46.801Z,43.56
2016-05-17T10:28:46.821Z,43.44
2016-05-17T10:29:46.854Z,43.47
2016-05-17T10:30:46.872Z,43.63
2016-05-17T10:31:46.907Z,43.44
2016-05-17T10:32:46.909Z,43.54
2016-05-17T10:33:46.943Z,43.73
2016-05-17T10:34:46.962Z,43.73
2016-05-17T10:35:46.995Z,43.73
2016-05-17T10:36:47.013Z,43.63
2016-05-17T10:37:47.032Z,43.37
2016-05-17T10:38:47.050Z,43.54
2016-05-17T10:39:47.068Z,43.54
2016-05-17T10:40:47.103Z,43.63
2016-05-17T10:41:47.121Z,43.76
2016-05-17T10:42:47.139Z,43.54
2016-05-17T10:43:47.001Z,43.63
2016-05-17T10:44:47.192Z,43.63
2016-05-17T10:45:47.225Z,43.63
2016-05-17T10:46:47.337Z,43.73
2016-05-17T10:47:47.247Z,43.16
2016-05-17T10:48:47.124Z,43.16
2016-05-17T10:49:47.314Z,43.44
2016-05-17T10:50:47.333Z,43.06
2016-05-17T10:51:47.367Z,43.06
2016-05-17T10:52:47.369Z,43.16
2016-05-17T10:53:47.388Z,43.26
2016-05-17T10:54:47.405Z,43.27
2016-05-17T10:55:47.533Z,42.9
2016-05-17T10:56:47.474Z,43.44
2016-05-17T10:57:47.320Z,43.16
2016-05-17T10:58:47.557Z,42.97
2016-05-17T10:59:47.357Z,43.06
2016-05-17T11:00:47.391Z,43.06
2016-05-17T11:01:47.581Z,43.26
2016-05-17T11:02:47.584Z,43.26
2016-05-17T11:03:47.461Z,43.26
2016-05-17T11:04:47.635Z,42.77
2016-05-17T11:05:47.654Z,43.26
2016-05-17T11:06:47.531Z,42.97
2016-05-17T11:07:47.706Z,43.16
2016-05-17T11:08:47.740Z,43.06
2016-05-17T11:09:47.759Z,42.97
2016-05-17T11:10:47.776Z,42.58
2016-05-17T11:11:47.654Z,42.87
2016-05-17T11:12:47.828Z,42.58
2016-05-17T11:13:47.831Z,42.3
2016-05-17T11:14:47.709Z,42.58
2016-05-17T11:15:47.883Z,42.51
2016-05-17T11:16:47.902Z,42.9
2016-05-17T11:17:47.920Z,42.41
2016-05-17T11:18:47.955Z,42.6
2016-05-17T11:19:47.973Z,42.6
2016-05-17T11:20:48.101Z,42.41
2016-05-17T11:21:48.055Z,42.6
2016-05-17T11:22:48.105Z,42.58
2016-05-17T11:23:48.062Z,42.51
2016-05-17T11:24:48.096Z,42.6
2016-05-17T11:25:47.958Z,42.6
2016-05-17T11:26:48.133Z,42.8
2016-05-17T11:27:48.151Z,42.03
2016-05-17T11:28:48.169Z,42.9
2016-05-17T11:29:48.046Z,42.22
2016-05-17T11:30:48.221Z,42.51
2016-05-17T11:31:48.271Z,42.9
2016-05-17T11:32:48.274Z,42.8
2016-05-17T11:33:48.292Z,42.6
2016-05-17T11:34:48.310Z,42.41
2016-05-17T11:35:48.344Z,42.8
2016-05-17T11:36:48.362Z,42.22
2016-05-17T11:37:48.395Z,42.22
2016-05-17T11:38:48.415Z,42.32
2016-05-17T11:39:48.276Z,42.32
2016-05-17T11:40:48.451Z,42.41
2016-05-17T11:41:48.470Z,42.51
2016-05-17T11:42:48.503Z,42.22
2016-05-17T11:43:48.522Z,42.32
2016-05-17T11:44:48.633Z,42.32
2016-05-17T11:45:48.558Z,42.41
2016-05-17T11:46:48.592Z,42.03
2016-05-17T11:47:48.611Z,42.32
2016-05-17T11:48:48.644Z,42.32
2016-05-17T11:49:48.491Z,42.32
2016-05-17T11:50:48.525Z,42.41
2016-05-17T11:51:48.636Z,42.51
2016-05-17T11:52:48.718Z,42.41
2016-05-17T11:53:48.752Z,42.22
2016-05-17T11:54:48.613Z,42.32
2016-05-17T11:55:48.788Z,42.32
2016-05-17T11:56:48.807Z,42.32
2016-05-17T11:57:48.840Z,42.32
2016-05-17T11:58:48.719Z,42.22
2016-05-17T11:59:48.722Z,42.32
2016-05-17T12:00:48.895Z,42.41
2016-05-17T12:01:48.929Z,42.22
2016-05-17T12:02:48.948Z,42.32
2016-05-17T12:03:48.966Z,42.03
2016-05-17T12:04:49.031Z,42.41
2016-05-17T12:05:48.863Z,42.32
2016-05-17T12:06:48.881Z,42.22
2016-05-17T12:07:48.976Z,42.41
2016-05-17T12:08:49.089Z,42.22
2016-05-17T12:09:49.107Z,41.94
2016-05-17T12:10:49.141Z,42.03
2016-05-17T12:11:49.144Z,42.13
2016-05-17T12:12:49.178Z,42.22
2016-05-17T12:13:49.040Z,42.22
2016-05-17T12:14:49.214Z,42.13
2016-05-17T12:15:49.233Z,42.22
2016-05-17T12:16:49.361Z,42.03
2016-05-17T12:17:49.285Z,42.22
2016-05-17T12:18:49.241Z,41.94
2016-05-17T12:19:49.337Z,42.03
2016-05-17T12:20:49.215Z,42.22
2016-05-17T12:21:49.686Z,42.32
2016-05-17T12:22:49.392Z,42.32
2016-05-17T12:23:49.254Z,42.22
2016-05-17T12:24:49.507Z,42.32
2016-05-17T12:25:49.463Z,42.22
2016-05-17T12:26:49.497Z,42.13
2016-05-17T12:27:49.530Z,42.32
2016-05-17T12:28:49.533Z,41.84
2016-05-17T12:29:49.443Z,41.84
2016-05-17T12:30:49.602Z,41.84
2016-05-17T12:31:49.619Z,41.65
2016-05-17T12:32:49.638Z,41.84
2016-05-17T12:33:49.641Z,41.74
2016-05-17T12:34:49.674Z,41.55
2016-05-17T12:35:49.693Z,41.84
2016-05-17T12:36:50.211Z,41.55
2016-05-17T12:37:49.932Z,41.84
2016-05-17T12:38:49.857Z,41.84
2016-05-17T12:39:49.782Z,41.84
2016-05-17T12:40:49.831Z,41.74
2016-05-17T12:41:49.834Z,41.94
2016-05-17T12:42:49.853Z,41.74
2016-05-17T12:43:49.871Z,41.65
2016-05-17T12:44:49.920Z,41.84
2016-05-17T12:45:49.939Z,41.94
2016-05-17T12:46:49.942Z,41.94
2016-05-17T12:47:49.975Z,41.84
2016-05-17T12:48:49.993Z,41.74
2016-05-17T12:49:50.011Z,41.74
2016-05-17T12:50:50.061Z,42.03
2016-05-17T12:51:50.392Z,42.03
2016-05-17T12:52:50.082Z,41.74
2016-05-17T12:53:50.100Z,41.94
2016-05-17T12:54:49.963Z,41.55
2016-05-17T12:55:50.044Z,41.65
2016-05-17T12:56:50.250Z,41.65